Time;durP1;ratioP1;P1;durP2;ratioP2;P2;SDS_P1;SDS_P2;PMS_P1;PMS_P2;Temp;Humidity;BMP_temperature;BMP_pressure;BME280_temperature;BME280_humidity;BME280_pressure;Samples;Min_cycle;Max_cycle;Signal;HPM_P1;HPM_P2
2022/10/11 00:00:48;;;;;;;1.50;1.50;;;20.00;70.40;;;;;;5109009;27;44018;-73
2022/10/11 00:03:17;;;;;;;1.60;1.60;;;20.10;70.10;;;;;;5109541;27;43300;-74
2022/10/11 00:05:44;;;;;;;1.57;1.57;;;20.20;69.80;;;;;;5111438;27;43601;-74
2022/10/11 00:08:13;;;;;;;1.67;1.67;;;20.30;69.30;;;;;;5111645;28;45902;-73
2022/10/11 00:10:41;;;;;;;1.80;1.80;;;20.40;68.80;;;;;;5111530;27;43465;-72
2022/10/11 00:13:09;;;;;;;1.73;1.73;;;20.50;68.70;;;;;;5112982;27;43440;-72
2022/10/11 00:15:39;;;;;;;1.60;1.60;;;20.40;68.70;;;;;;5112651;27;43517;-73
2022/10/11 00:18:07;;;;;;;1.60;1.60;;;20.40;68.80;;;;;;5112013;28;44024;-73
2022/10/11 00:20:35;;;;;;;1.70;1.70;;;20.20;68.90;;;;;;5112444;27;43546;-72
2022/10/11 00:23:02;;;;;;;1.50;1.50;;;20.20;69.70;;;;;;5112488;27;43453;-73
2022/10/11 00:25:30;;;;;;;1.70;1.70;;;20.20;69.70;;;;;;5112605;27;43430;-72
2022/10/11 00:27:58;;;;;;;1.60;1.60;;;20.20;69.50;;;;;;5108403;28;45565;-72
2022/10/11 00:30:26;;;;;;;1.70;1.70;;;20.20;69.50;;;;;;5108568;28;44796;-72
2022/10/11 00:32:55;;;;;;;1.50;1.50;;;20.10;69.50;;;;;;5110206;27;43386;-73
2022/10/11 00:35:23;;;;;;;1.40;1.40;;;20.10;70.10;;;;;;5110352;27;43465;-72
2022/10/11 00:37:51;;;;;;;1.80;1.80;;;20.10;70.20;;;;;;5109400;28;43925;-73
2022/10/11 00:40:20;;;;;;;1.50;1.50;;;20.10;69.80;;;;;;5109900;27;43433;-72
2022/10/11 00:42:48;;;;;;;1.50;1.50;;;20.10;69.80;;;;;;5110358;27;43397;-72
2022/10/11 00:45:53;;;;;;;1.93;1.83;;;20.00;69.80;;;;;;5110420;28;43334;-73
2022/10/11 00:48:26;;;;;;;1.80;1.70;;;20.00;70.40;;;;;;5109222;28;43894;-73
2022/10/11 00:50:54;;;;;;;1.63;1.60;;;20.10;70.40;;;;;;5109894;28;43461;-72
2022/10/11 00:53:22;;;;;;;1.70;1.70;;;20.20;69.90;;;;;;5109969;27;43386;-73
2022/10/11 00:55:53;;;;;;;1.70;1.70;;;20.30;69.40;;;;;;5110881;28;43929;-72
2022/10/11 00:58:20;;;;;;;1.83;1.83;;;20.40;68.80;;;;;;5105148;28;43849;-73
2022/10/11 01:00:48;;;;;;;1.77;1.77;;;20.50;68.80;;;;;;5103321;27;43367;-74
2022/10/11 01:03:16;;;;;;;1.77;1.77;;;20.40;68.70;;;;;;5087132;28;43449;-74
2022/10/11 01:05:46;;;;;;;1.70;1.70;;;20.40;68.80;;;;;;5089063;28;43426;-73
2022/10/11 01:08:14;;;;;;;1.90;1.90;;;20.30;69.00;;;;;;5088823;27;43618;-74
2022/10/11 01:10:42;;;;;;;1.53;1.53;;;20.20;69.70;;;;;;5087621;28;45064;-75
2022/10/11 01:13:15;;;;;;;1.60;1.60;;;20.20;69.60;;;;;;5088994;27;43574;-75
2022/10/11 01:15:45;;;;;;;1.40;1.40;;;20.20;69.50;;;;;;5089092;27;44524;-75
2022/10/11 01:18:16;;;;;;;1.80;1.80;;;20.20;69.60;;;;;;5088654;27;44010;-73
2022/10/11 01:20:53;;;;;;;1.70;1.70;;;20.10;69.60;;;;;;5088646;27;43502;-74
2022/10/11 01:23:41;;;;;;;1.80;1.80;;;20.10;70.30;;;;;;5088944;27;43437;-72
2022/10/11 01:26:34;;;;;;;1.70;1.70;;;20.10;70.00;;;;;;5089629;27;43405;-74
2022/10/11 01:29:08;;;;;;;1.60;1.60;;;20.10;69.90;;;;;;5086379;28;43860;-74
2022/10/11 01:31:38;;;;;;;1.83;1.83;;;20.00;69.80;;;;;;5088094;28;43514;-74
2022/10/11 01:34:11;;;;;;;1.67;1.67;;;20.00;70.00;;;;;;5088624;27;43410;-75
2022/10/11 01:36:39;;;;;;;1.70;1.70;;;20.00;70.60;;;;;;5088093;28;44034;-73
2022/10/11 01:39:10;;;;;;;1.73;1.73;;;20.10;70.40;;;;;;5088114;27;43866;-73
2022/10/11 01:41:40;;;;;;;1.80;1.80;;;20.20;70.00;;;;;;5088312;27;43511;-74
2022/10/11 01:44:08;;;;;;;1.80;1.80;;;20.20;69.60;;;;;;5081554;28;43424;-75
2022/10/11 01:46:37;;;;;;;2.00;2.00;;;20.30;69.50;;;;;;5082207;28;43419;-75
2022/10/11 01:49:05;;;;;;;1.90;1.90;;;20.20;69.40;;;;;;5081055;28;43626;-72
2022/10/11 01:51:34;;;;;;;2.00;1.90;;;20.20;69.80;;;;;;5080238;28;44233;-74
2022/10/11 01:54:09;;;;;;;1.90;1.90;;;20.20;69.60;;;;;;5088007;27;43372;-74
2022/10/11 01:56:54;;;;;;;1.60;1.60;;;20.20;69.40;;;;;;5088544;27;43506;-74
2022/10/11 01:59:30;;;;;;;1.60;1.60;;;20.20;69.50;;;;;;5087565;28;43897;-73
2022/10/11 02:02:03;;;;;;;1.70;1.70;;;20.10;69.50;;;;;;5087816;27;43425;-73
2022/10/11 02:04:32;;;;;;;1.73;1.73;;;20.10;70.10;;;;;;5086406;28;43405;-74
2022/10/11 02:07:04;;;;;;;1.80;1.80;;;20.10;70.10;;;;;;5086549;28;43434;-75
2022/10/11 02:09:33;;;;;;;1.53;1.53;;;20.10;69.80;;;;;;5087972;27;43684;-74
2022/10/11 02:12:05;;;;;;;1.70;1.70;;;20.10;69.80;;;;;;5087787;27;43370;-74
2022/10/11 02:14:34;;;;;;;2.00;2.00;;;20.00;69.80;;;;;;5079768;28;43373;-74
2022/10/11 02:17:06;;;;;;;1.80;1.80;;;20.00;70.50;;;;;;5087753;27;43729;-75
2022/10/11 02:19:35;;;;;;;1.70;1.70;;;20.10;70.40;;;;;;5082106;28;43835;-74
2022/10/11 02:22:06;;;;;;;1.90;1.87;;;20.20;70.10;;;;;;5087591;27;43421;-74
2022/10/11 02:24:34;;;;;;;1.90;1.90;;;20.30;69.50;;;;;;5087530;27;43450;-72
2022/10/11 02:27:03;;;;;;;1.90;1.90;;;20.40;69.10;;;;;;5086980;27;43924;-72
2022/10/11 02:29:32;;;;;;;2.03;2.03;;;20.40;68.90;;;;;;5087106;28;44173;-74
2022/10/11 02:32:00;;;;;;;1.70;1.70;;;20.40;68.80;;;;;;5087665;28;43442;-73
2022/10/11 02:34:31;;;;;;;1.80;1.80;;;20.30;69.00;;;;;;5087444;27;43422;-74
2022/10/11 02:37:01;;;;;;;1.67;1.67;;;20.30;69.30;;;;;;5087768;27;43386;-74
2022/10/11 02:39:31;;;;;;;2.00;1.90;;;20.20;69.80;;;;;;5086689;27;43994;-73
2022/10/11 02:42:01;;;;;;;1.70;1.70;;;20.20;69.90;;;;;;5082984;28;43368;-73
2022/10/11 02:44:31;;;;;;;2.00;2.00;;;20.20;69.70;;;;;;5087195;27;43425;-74
2022/10/11 02:46:59;;;;;;;2.10;2.00;;;20.10;69.60;;;;;;5086112;28;43597;-74
2022/10/11 02:49:27;;;;;;;1.90;1.90;;;20.10;69.80;;;;;;5085475;28;45262;-74
2022/10/11 02:51:56;;;;;;;2.00;2.00;;;20.10;70.30;;;;;;5083163;28;43446;-74
2022/10/11 02:54:24;;;;;;;1.80;1.80;;;20.00;70.30;;;;;;5087078;27;43391;-74
2022/10/11 02:56:52;;;;;;;1.97;1.97;;;20.10;70.10;;;;;;5087557;27;43488;-73
2022/10/11 02:59:20;;;;;;;1.90;1.90;;;20.00;69.90;;;;;;5085004;28;45818;-74
2022/10/11 03:01:48;;;;;;;2.00;2.00;;;20.00;70.00;;;;;;5087106;27;43738;-73
2022/10/11 03:04:16;;;;;;;1.80;1.80;;;20.00;70.30;;;;;;5082492;28;43388;-74
2022/10/11 03:06:44;;;;;;;1.70;1.70;;;20.00;70.70;;;;;;5087666;27;43575;-75
2022/10/11 03:09:13;;;;;;;1.90;1.90;;;20.00;70.30;;;;;;5086908;27;43638;-73
2022/10/11 03:11:41;;;;;;;2.00;2.00;;;20.20;69.90;;;;;;5086949;27;43438;-73
2022/10/11 03:14:09;;;;;;;2.00;2.00;;;20.30;69.40;;;;;;5086860;27;43589;-74
2022/10/11 03:16:36;;;;;;;1.77;1.77;;;20.40;68.90;;;;;;5087341;27;43983;-73
2022/10/11 03:19:04;;;;;;;2.27;2.27;;;20.50;68.80;;;;;;5086720;27;43602;-74
2022/10/11 03:21:32;;;;;;;1.97;1.97;;;20.40;68.70;;;;;;5086604;27;43405;-75
2022/10/11 03:24:00;;;;;;;1.83;1.83;;;20.40;68.90;;;;;;5085539;28;43495;-73
2022/10/11 03:26:30;;;;;;;2.00;2.00;;;20.30;69.10;;;;;;5086661;27;43909;-74
2022/10/11 03:28:57;;;;;;;1.80;1.80;;;20.20;69.70;;;;;;5086859;27;43688;-73
2022/10/11 03:31:25;;;;;;;1.90;1.90;;;20.20;69.70;;;;;;5086341;28;43940;-73
2022/10/11 03:33:53;;;;;;;2.10;2.10;;;20.20;69.60;;;;;;5083234;28;43459;-74
2022/10/11 03:36:21;;;;;;;1.77;1.77;;;20.20;69.60;;;;;;5086715;27;44089;-74
2022/10/11 03:38:49;;;;;;;2.20;2.20;;;20.10;69.70;;;;;;5087477;27;43870;-74
2022/10/11 03:41:17;;;;;;;2.00;2.00;;;20.10;70.20;;;;;;5088905;27;43500;-74
2022/10/11 03:43:46;;;;;;;2.10;2.00;;;20.10;70.30;;;;;;5090231;28;43812;-74
2022/10/11 03:46:14;;;;;;;2.00;2.00;;;20.10;70.10;;;;;;5090428;27;43477;-75
2022/10/11 03:48:42;;;;;;;2.20;2.00;;;20.00;70.60;;;;;;5089576;27;43591;-74
2022/10/11 03:51:11;;;;;;;2.70;2.50;;;20.00;70.00;;;;;;5089857;27;43393;-73
2022/10/11 03:53:40;;;;;;;4.17;3.03;;;20.00;70.40;;;;;;5090635;27;43384;-74
2022/10/11 03:56:08;;;;;;;4.53;3.30;;;20.00;70.60;;;;;;5089985;27;43440;-73
2022/10/11 03:58:36;;;;;;;3.63;2.80;;;20.10;70.30;;;;;;5089858;28;43946;-74
2022/10/11 04:01:06;;;;;;;3.57;3.00;;;20.20;69.80;;;;;;5088352;28;44390;-75
2022/10/11 04:03:33;;;;;;;2.90;2.70;;;20.30;69.20;;;;;;5089701;27;43506;-73
2022/10/11 04:06:01;;;;;;;3.17;2.87;;;20.40;69.80;;;;;;5090163;27;43461;-73
2022/10/11 04:08:30;;;;;;;3.03;2.83;;;20.40;69.00;;;;;;5089797;28;43726;-74
2022/10/11 04:10:58;;;;;;;3.77;3.10;;;20.40;69.10;;;;;;5089799;28;43441;-74
2022/10/11 04:13:26;;;;;;;3.30;3.10;;;20.30;69.30;;;;;;5089695;27;43410;-74
2022/10/11 04:15:54;;;;;;;3.20;2.90;;;20.20;69.60;;;;;;5088758;28;43426;-75
2022/10/11 04:18:23;;;;;;;3.20;2.90;;;20.20;70.00;;;;;;5089705;27;43869;-75
2022/10/11 04:20:51;;;;;;;4.30;3.50;;;20.20;69.90;;;;;;5089426;27;43513;-74
2022/10/11 04:23:19;;;;;;;4.67;3.07;;;20.10;69.70;;;;;;5104873;27;43345;-73
2022/10/11 04:25:47;;;;;;;4.40;3.33;;;20.10;69.80;;;;;;5088674;27;44999;-73
2022/10/11 04:28:15;;;;;;;4.23;3.20;;;20.00;69.90;;;;;;5103644;27;46069;-73
2022/10/11 04:30:43;;;;;;;5.87;3.70;;;20.00;70.40;;;;;;5089228;27;43462;-73
2022/10/11 04:33:11;;;;;;;3.73;3.37;;;20.00;70.10;;;;;;5089276;28;43425;-74
2022/10/11 04:35:40;;;;;;;3.90;3.53;;;20.00;69.90;;;;;;5089148;27;43421;-75
2022/10/11 04:38:08;;;;;;;4.93;3.60;;;20.00;69.90;;;;;;5086510;28;45560;-73
2022/10/11 04:40:36;;;;;;;5.33;3.60;;;20.00;70.10;;;;;;5113623;27;44260;-75
2022/10/11 04:43:04;;;;;;;6.07;4.40;;;20.00;70.70;;;;;;5086498;28;43485;-74
2022/10/11 04:45:32;;;;;;;4.57;3.50;;;20.00;70.40;;;;;;5088855;27;43561;-75
2022/10/11 04:48:00;;;;;;;4.53;3.67;;;20.20;70.10;;;;;;5087331;28;44499;-74
2022/10/11 04:50:28;;;;;;;5.10;3.63;;;20.30;69.50;;;;;;5086719;28;44760;-74
2022/10/11 04:52:58;;;;;;;4.33;3.60;;;20.40;69.10;;;;;;5087001;28;43811;-73
2022/10/11 04:55:27;;;;;;;3.90;3.57;;;20.40;68.90;;;;;;5089737;27;43476;-73
2022/10/11 04:57:55;;;;;;;3.67;3.37;;;20.40;68.90;;;;;;5087643;28;45612;-73
2022/10/11 05:00:23;;;;;;;4.93;3.97;;;20.40;69.00;;;;;;5088646;27;43935;-74
2022/10/11 05:02:52;;;;;;;4.73;3.83;;;20.30;69.20;;;;;;5088986;27;43457;-74
2022/10/11 05:05:20;;;;;;;4.70;3.67;;;20.20;69.70;;;;;;5087940;28;43540;-75
2022/10/11 05:07:48;;;;;;;4.20;3.80;;;20.20;69.90;;;;;;5089064;27;43835;-73
2022/10/11 05:10:17;;;;;;;4.83;3.63;;;20.20;69.80;;;;;;5087493;27;44071;-74
2022/10/11 05:12:45;;;;;;;3.60;3.30;;;20.10;69.70;;;;;;5088766;27;43427;-75
2022/10/11 05:15:13;;;;;;;4.87;3.43;;;20.10;69.80;;;;;;5089406;28;43460;-74
2022/10/11 05:17:41;;;;;;;3.90;3.47;;;20.10;70.10;;;;;;5088843;28;43925;-74
2022/10/11 05:20:11;;;;;;;4.43;3.23;;;20.00;70.40;;;;;;5088837;27;43408;-74
2022/10/11 05:22:39;;;;;;;3.53;3.17;;;20.10;70.20;;;;;;5088387;28;43456;-73
2022/10/11 05:25:07;;;;;;;3.27;3.00;;;20.00;70.00;;;;;;5087246;28;43489;-74
2022/10/11 05:27:37;;;;;;;3.50;3.20;;;20.00;70.00;;;;;;5088620;28;43912;-72
2022/10/11 05:30:06;;;;;;;3.37;3.17;;;20.00;70.10;;;;;;5088822;27;43466;-74
2022/10/11 05:32:34;;;;;;;3.50;3.20;;;20.00;70.60;;;;;;5088261;27;43449;-74
2022/10/11 05:35:02;;;;;;;3.87;3.53;;;20.00;70.40;;;;;;5087191;28;43514;-73
2022/10/11 05:37:29;;;;;;;3.50;3.20;;;20.20;70.00;;;;;;5086576;28;45933;-74
2022/10/11 05:39:57;;;;;;;3.33;3.03;;;20.30;69.50;;;;;;5087734;27;43473;-74
2022/10/11 05:42:25;;;;;;;3.73;3.43;;;20.40;69.10;;;;;;5086947;28;43410;-75
2022/10/11 05:44:54;;;;;;;3.17;2.83;;;20.40;69.00;;;;;;5086799;27;43508;-74
2022/10/11 05:47:22;;;;;;;3.17;2.90;;;20.40;69.00;;;;;;5087558;28;43606;-74
2022/10/11 05:49:50;;;;;;;3.53;3.20;;;20.30;69.20;;;;;;5086007;28;43474;-74
2022/10/11 05:52:20;;;;;;;3.97;3.40;;;20.20;69.30;;;;;;5088395;27;43363;-74
2022/10/11 05:54:48;;;;;;;3.60;3.30;;;20.20;70.00;;;;;;5088625;27;43465;-73
2022/10/11 05:57:16;;;;;;;3.63;3.30;;;20.10;69.80;;;;;;5087854;27;43609;-74
2022/10/11 05:59:44;;;;;;;3.47;3.10;;;20.20;69.80;;;;;;5086572;28;44603;-76
2022/10/11 06:02:13;;;;;;;2.90;2.70;;;20.10;69.70;;;;;;5087239;27;43537;-73
2022/10/11 06:04:41;;;;;;;3.77;2.90;;;20.10;69.90;;;;;;5088504;28;43433;-74
2022/10/11 06:07:09;;;;;;;3.70;3.27;;;20.00;70.30;;;;;;5088223;27;43610;-74
2022/10/11 06:09:36;;;;;;;3.60;3.30;;;20.10;70.30;;;;;;5087599;27;43485;-75
2022/10/11 06:12:05;;;;;;;3.10;2.90;;;20.20;69.90;;;;;;5087769;27;43793;-74
2022/10/11 06:14:33;;;;;;;3.27;2.97;;;20.30;70.20;;;;;;5088453;27;43357;-74
2022/10/11 06:17:01;;;;;;;3.73;3.37;;;20.30;69.30;;;;;;5087691;27;43630;-74
2022/10/11 06:19:30;;;;;;;3.67;3.00;;;20.30;69.20;;;;;;5087518;28;43523;-74
2022/10/11 06:21:58;;;;;;;3.30;3.00;;;20.20;69.60;;;;;;5087936;27;43352;-72
2022/10/11 06:24:26;;;;;;;3.20;3.00;;;20.20;69.50;;;;;;5087922;27;43939;-74
2022/10/11 06:26:54;;;;;;;3.20;3.00;;;20.20;69.50;;;;;;5085910;28;45519;-74
2022/10/11 06:29:22;;;;;;;3.00;2.80;;;20.20;69.50;;;;;;5087756;27;44039;-74
2022/10/11 06:31:50;;;;;;;3.10;2.90;;;20.20;69.60;;;;;;5085854;28;43389;-75
2022/10/11 06:34:18;;;;;;;3.17;2.90;;;20.10;70.00;;;;;;5087818;27;43470;-75
2022/10/11 06:36:47;;;;;;;3.10;2.90;;;20.10;70.10;;;;;;5086968;28;43663;-72
2022/10/11 06:39:15;;;;;;;2.80;2.60;;;20.10;69.90;;;;;;5085777;28;44971;-74
2022/10/11 06:41:43;;;;;;;2.73;2.63;;;20.10;69.90;;;;;;5086096;28;43763;-74
2022/10/11 06:44:11;;;;;;;2.97;2.83;;;20.10;69.90;;;;;;5087891;28;43502;-74
2022/10/11 06:46:41;;;;;;;3.07;2.87;;;20.00;70.10;;;;;;5087367;28;43849;-74
2022/10/11 06:49:09;;;;;;;3.23;2.93;;;20.00;70.40;;;;;;5080818;28;43414;-75
2022/10/11 06:51:37;;;;;;;2.83;2.63;;;20.10;70.10;;;;;;5082118;28;43370;-73
2022/10/11 06:54:06;;;;;;;2.77;2.57;;;20.20;69.70;;;;;;5081546;28;44038;-74
2022/10/11 06:56:34;;;;;;;2.87;2.63;;;20.40;69.10;;;;;;5083395;28;43999;-73
2022/10/11 06:59:02;;;;;;;2.77;2.57;;;20.40;68.80;;;;;;5087199;28;43402;-73
2022/10/11 07:01:31;;;;;;;2.87;2.67;;;20.40;68.70;;;;;;5081200;28;43385;-74
2022/10/11 07:04:00;;;;;;;2.70;2.50;;;20.40;68.80;;;;;;5084027;28;43507;-73
2022/10/11 07:06:28;;;;;;;2.57;2.47;;;20.30;69.00;;;;;;5085302;28;45238;-74
2022/10/11 07:08:56;;;;;;;2.50;2.40;;;20.30;69.40;;;;;;5085845;27;43465;-72
2022/10/11 07:11:26;;;;;;;2.77;2.57;;;20.20;69.80;;;;;;5086797;27;43417;-74
2022/10/11 07:13:55;;;;;;;2.57;2.43;;;20.20;69.70;;;;;;5087407;27;43444;-74
2022/10/11 07:16:23;;;;;;;2.60;2.40;;;20.20;69.60;;;;;;5085295;28;45436;-74
2022/10/11 07:18:52;;;;;;;2.70;2.50;;;20.10;69.70;;;;;;5087146;27;43413;-74
2022/10/11 07:21:26;;;;;;;2.50;2.40;;;20.10;69.90;;;;;;5085467;28;43440;-74
2022/10/11 07:23:54;;;;;;;2.53;2.40;;;20.10;70.40;;;;;;5087370;27;43993;-73
2022/10/11 07:26:22;;;;;;;3.03;2.83;;;20.10;70.10;;;;;;5086803;28;43942;-74
2022/10/11 07:28:52;;;;;;;2.70;2.50;;;20.10;70.00;;;;;;5085545;28;44428;-73
2022/10/11 07:31:21;;;;;;;2.70;2.53;;;20.00;69.90;;;;;;5086905;27;43805;-73
2022/10/11 07:33:49;;;;;;;2.83;2.63;;;20.00;70.10;;;;;;5085016;27;43969;-73
2022/10/11 07:36:17;;;;;;;3.00;2.80;;;20.00;70.50;;;;;;5086492;28;43922;-74
2022/10/11 07:38:45;;;;;;;2.60;2.50;;;20.00;70.40;;;;;;5086618;28;43458;-73
2022/10/11 07:41:13;;;;;;;2.23;2.13;;;20.10;70.10;;;;;;5086578;27;43450;-74
2022/10/11 07:43:42;;;;;;;2.53;2.33;;;20.20;69.60;;;;;;5086873;27;44220;-74
2022/10/11 07:46:11;;;;;;;2.60;2.40;;;20.40;69.10;;;;;;5086660;28;43644;-73
2022/10/11 07:48:39;;;;;;;2.43;2.30;;;20.40;68.80;;;;;;5086261;27;43410;-75
2022/10/11 07:51:08;;;;;;;2.50;2.30;;;20.40;68.80;;;;;;5086520;28;43379;-73
2022/10/11 07:53:40;;;;;;;2.20;2.10;;;20.40;69.00;;;;;;5087165;27;43435;-75
2022/10/11 07:56:08;;;;;;;2.30;2.20;;;20.30;69.10;;;;;;5086220;27;43944;-75
2022/10/11 07:58:36;;;;;;;2.70;2.60;;;20.20;69.60;;;;;;5083599;28;43437;-74
2022/10/11 08:01:04;;;;;;;2.40;2.30;;;20.20;69.90;;;;;;5084694;28;43991;-74
2022/10/11 08:03:34;;;;;;;2.33;2.23;;;20.20;69.70;;;;;;5085070;28;43622;-75
2022/10/11 08:06:02;;;;;;;2.23;2.10;;;20.20;69.70;;;;;;5086131;27;44447;-72
2022/10/11 08:08:30;;;;;;;2.20;2.10;;;20.10;69.70;;;;;;5084883;28;44957;-74
2022/10/11 08:10:59;;;;;;;2.77;2.60;;;20.10;69.90;;;;;;5086326;27;43358;-74
2022/10/11 08:13:27;;;;;;;2.67;2.47;;;20.10;70.40;;;;;;5086663;27;43494;-73
2022/10/11 08:15:54;;;;;;;2.23;2.13;;;20.10;70.20;;;;;;5086605;27;43757;-74
2022/10/11 08:18:22;;;;;;;2.10;2.00;;;20.10;70.00;;;;;;5085910;27;43437;-74
2022/10/11 08:20:52;;;;;;;2.30;2.20;;;20.00;69.90;;;;;;5086463;27;43362;-73
2022/10/11 08:23:20;;;;;;;2.30;2.20;;;20.00;70.00;;;;;;5086437;27;43621;-73
2022/10/11 08:25:48;;;;;;;3.00;2.40;;;20.00;70.50;;;;;;5088964;27;43848;-74
2022/10/11 08:28:16;;;;;;;3.07;2.87;;;20.00;70.50;;;;;;5089022;27;44333;-75
2022/10/11 08:30:48;;;;;;;2.60;2.40;;;20.10;70.10;;;;;;5088386;28;43463;-74
2022/10/11 08:33:16;;;;;;;2.17;2.07;;;20.30;69.70;;;;;;5089865;27;44022;-74
2022/10/11 08:35:44;;;;;;;2.33;2.23;;;20.40;69.10;;;;;;5089446;27;43606;-74
2022/10/11 08:38:13;;;;;;;2.40;2.30;;;20.40;68.80;;;;;;5088958;27;43492;-74
2022/10/11 08:40:45;;;;;;;2.33;2.20;;;20.40;68.80;;;;;;5089698;27;43349;-74
2022/10/11 08:43:27;;;;;;;2.17;2.10;;;20.30;68.90;;;;;;5089693;27;43442;-74
2022/10/11 08:45:57;;;;;;;2.03;1.93;;;20.30;69.20;;;;;;5083761;28;43864;-74
2022/10/11 08:48:32;;;;;;;2.60;2.40;;;20.20;69.60;;;;;;5087488;28;44292;-74
2022/10/11 08:50:59;;;;;;;2.37;2.23;;;20.20;70.00;;;;;;5088153;28;43942;-73
2022/10/11 08:53:40;;;;;;;2.10;2.00;;;20.10;69.70;;;;;;5089797;28;43464;-74
2022/10/11 08:56:08;;;;;;;2.10;2.00;;;20.10;69.70;;;;;;5089503;27;43835;-73
2022/10/11 08:58:39;;;;;;;2.17;2.07;;;20.10;69.80;;;;;;5086088;28;43361;-73
2022/10/11 09:01:07;;;;;;;2.13;1.80;;;20.00;70.10;;;;;;5088944;28;43426;-75
2022/10/11 09:03:38;;;;;;;1.80;1.70;;;20.00;70.40;;;;;;5089490;27;43406;-75
2022/10/11 09:06:11;;;;;;;2.07;1.97;;;20.00;70.20;;;;;;5089146;27;43586;-73
2022/10/11 09:08:47;;;;;;;1.83;1.83;;;20.00;70.00;;;;;;5089044;27;43748;-73
2022/10/11 09:11:19;;;;;;;2.20;2.10;;;20.00;70.10;;;;;;5087577;28;43463;-74
2022/10/11 09:14:06;;;;;;;2.00;2.00;;;20.00;70.30;;;;;;5087752;28;43954;-74
2022/10/11 09:16:42;;;;;;;2.20;2.10;;;20.00;70.70;;;;;;5088749;27;43602;-74
2022/10/11 09:19:20;;;;;;;2.20;2.10;;;20.10;70.40;;;;;;5089052;28;43485;-72
2022/10/11 09:21:51;;;;;;;2.30;2.20;;;20.20;69.90;;;;;;5088537;27;43971;-74
2022/10/11 09:24:32;;;;;;;2.00;2.00;;;20.30;69.40;;;;;;5088845;28;44002;-74
2022/10/11 09:27:03;;;;;;;1.70;1.70;;;20.40;69.60;;;;;;5083821;28;43890;-72
2022/10/11 09:29:45;;;;;;;1.77;1.77;;;20.40;68.90;;;;;;5088513;27;43474;-73
2022/10/11 09:32:15;;;;;;;2.07;1.97;;;20.40;69.00;;;;;;5088796;27;43476;-73
2022/10/11 09:34:43;;;;;;;2.13;2.03;;;20.30;69.10;;;;;;5089044;27;43605;-73
2022/10/11 09:37:16;;;;;;;2.07;1.97;;;20.20;69.50;;;;;;5088413;27;43939;-74
2022/10/11 09:39:49;;;;;;;1.83;1.80;;;20.20;69.90;;;;;;5088643;27;43487;-74
2022/10/11 09:42:17;;;;;;;1.93;1.83;;;20.20;69.70;;;;;;5088394;27;43434;-73
2022/10/11 09:44:47;;;;;;;1.97;1.97;;;20.10;69.60;;;;;;5087124;28;43567;-74
2022/10/11 09:47:15;;;;;;;1.90;1.80;;;20.10;69.70;;;;;;5087444;28;45916;-73
2022/10/11 09:49:47;;;;;;;1.80;1.70;;;20.00;69.90;;;;;;5088187;27;43457;-74
2022/10/11 09:52:16;;;;;;;1.60;1.60;;;20.00;70.40;;;;;;5087182;28;43510;-74
2022/10/11 09:54:46;;;;;;;1.60;1.60;;;20.00;70.20;;;;;;5088922;27;43440;-73
2022/10/11 09:57:19;;;;;;;2.20;2.10;;;20.00;70.10;;;;;;5086798;28;45828;-75
2022/10/11 09:59:58;;;;;;;2.00;1.90;;;20.00;70.10;;;;;;5088049;27;44044;-73
2022/10/11 10:02:26;;;;;;;1.80;1.70;;;20.00;70.10;;;;;;5088217;27;43474;-74
2022/10/11 10:04:59;;;;;;;2.07;1.97;;;20.00;70.70;;;;;;5088559;27;43533;-75
2022/10/11 10:07:27;;;;;;;1.97;1.87;;;20.00;70.40;;;;;;5083388;28;43846;-74
2022/10/11 10:09:56;;;;;;;1.67;1.67;;;20.10;70.00;;;;;;5086216;28;44400;-73
2022/10/11 10:12:26;;;;;;;1.90;1.80;;;20.30;69.60;;;;;;5082088;28;43982;-75
2022/10/11 10:15:05;;;;;;;1.80;1.70;;;20.40;69.20;;;;;;5086574;28;43430;-74
2022/10/11 10:17:33;;;;;;;1.70;1.70;;;20.40;69.10;;;;;;5088009;28;43924;-74
2022/10/11 10:20:04;;;;;;;2.10;2.00;;;20.30;69.00;;;;;;5087738;28;43510;-74
2022/10/11 10:22:34;;;;;;;1.60;1.60;;;20.30;69.20;;;;;;5087868;27;43477;-73
2022/10/11 10:25:06;;;;;;;1.70;1.70;;;20.20;69.40;;;;;;5086209;28;43540;-74
2022/10/11 10:27:34;;;;;;;1.57;1.57;;;20.10;69.90;;;;;;5087806;28;43763;-72
2022/10/11 10:30:13;;;;;;;1.67;1.67;;;20.10;69.90;;;;;;5087290;27;43500;-75
2022/10/11 10:32:45;;;;;;;1.70;1.70;;;20.10;69.80;;;;;;5088158;28;43417;-71
2022/10/11 10:35:31;;;;;;;1.80;1.80;;;20.10;69.80;;;;;;5118138;27;43419;-73
2022/10/11 10:38:08;;;;;;;1.77;1.77;;;20.00;69.90;;;;;;5087619;27;43602;-74
2022/10/11 10:40:40;;;;;;;1.67;1.63;;;20.00;70.40;;;;;;5085871;28;44045;-74
2022/10/11 10:43:15;;;;;;;1.70;1.70;;;20.00;70.40;;;;;;5087443;27;43435;-74
2022/10/11 10:46:15;;;;;;;1.60;1.60;;;20.00;70.10;;;;;;5088009;27;43476;-74
2022/10/11 10:48:49;;;;;;;1.93;1.83;;;20.00;70.10;;;;;;5086471;27;44049;-73
2022/10/11 10:51:43;;;;;;;1.47;1.47;;;20.00;70.10;;;;;;5080785;28;43311;-75
2022/10/11 10:54:15;;;;;;;1.53;1.53;;;20.00;71.50;;;;;;5087603;27;43414;-74
2022/10/11 10:56:46;;;;;;;1.60;1.60;;;20.00;70.60;;;;;;5087765;27;43490;-74
2022/10/11 10:59:23;;;;;;;1.50;1.50;;;20.10;70.20;;;;;;5087021;27;43587;-74
2022/10/11 11:01:55;;;;;;;2.00;1.90;;;20.20;69.70;;;;;;5085015;28;44747;-73
2022/10/11 11:04:29;;;;;;;1.70;1.60;;;20.30;69.20;;;;;;5087456;27;43485;-75
2022/10/11 11:06:58;;;;;;;1.73;1.73;;;20.40;69.20;;;;;;5086196;28;43467;-73
2022/10/11 11:09:32;;;;;;;1.50;1.50;;;20.30;69.40;;;;;;5085889;27;43851;-74
2022/10/11 11:12:10;;;;;;;1.50;1.50;;;20.30;69.60;;;;;;5086694;28;43351;-74
2022/10/11 11:14:44;;;;;;;1.50;1.50;;;20.20;69.80;;;;;;5081051;28;43524;-74
2022/10/11 11:17:17;;;;;;;1.60;1.60;;;20.20;70.30;;;;;;5087424;27;44052;-74
2022/10/11 11:19:52;;;;;;;1.50;1.50;;;20.10;70.00;;;;;;5086822;27;43594;-73
2022/10/11 11:22:23;;;;;;;1.60;1.60;;;20.10;70.10;;;;;;5087035;27;43433;-74
2022/10/11 11:25:00;;;;;;;1.50;1.50;;;20.10;70.30;;;;;;5086893;27;43516;-74
2022/10/11 11:27:39;;;;;;;1.60;1.50;;;20.00;70.40;;;;;;5087447;28;43438;-75
2022/10/11 11:30:09;;;;;;;1.50;1.50;;;20.00;70.60;;;;;;5086600;27;43606;-74
2022/10/11 11:32:43;;;;;;;1.60;1.60;;;20.10;70.30;;;;;;5085181;28;44716;-73
2022/10/11 11:35:15;;;;;;;1.40;1.40;;;20.20;70.00;;;;;;5080580;28;43418;-74
2022/10/11 11:37:44;;;;;;;1.40;1.40;;;20.20;69.80;;;;;;5081639;28;44020;-72
2022/10/11 11:40:15;;;;;;;1.70;1.60;;;20.20;69.80;;;;;;5079232;28;46130;-74
2022/10/11 11:42:46;;;;;;;1.97;1.87;;;20.20;70.10;;;;;;5085213;28;44955;-74
2022/10/11 11:45:17;;;;;;;1.43;1.43;;;20.20;69.90;;;;;;5086819;28;43686;-73
2022/10/11 11:47:47;;;;;;;1.30;1.30;;;20.20;70.00;;;;;;5087255;27;43427;-73
2022/10/11 11:50:21;;;;;;;1.50;1.50;;;20.20;70.10;;;;;;5084846;28;46038;-72
2022/10/11 11:52:51;;;;;;;1.50;1.50;;;20.10;70.20;;;;;;5078519;27;43420;-73
2022/10/11 11:55:23;;;;;;;1.40;1.40;;;20.10;70.60;;;;;;5086058;27;43544;-74
2022/10/11 11:57:57;;;;;;;1.20;1.20;;;20.10;70.40;;;;;;5087015;27;43961;-73
2022/10/11 12:00:30;;;;;;;1.30;1.30;;;20.10;70.40;;;;;;5088794;28;43846;-75
2022/10/11 12:02:59;;;;;;;1.50;1.50;;;20.00;70.40;;;;;;5088145;28;44666;-73
2022/10/11 12:05:28;;;;;;;1.50;1.50;;;20.00;70.40;;;;;;5089565;28;43473;-73
2022/10/11 12:07:58;;;;;;;1.23;1.23;;;20.00;70.70;;;;;;5087546;28;43585;-73
2022/10/11 12:10:32;;;;;;;1.50;1.50;;;20.00;70.70;;;;;;5089255;27;43610;-73
2022/10/11 12:13:15;;;;;;;1.50;1.50;;;20.10;70.40;;;;;;5087559;28;44407;-74
2022/10/11 12:16:09;;;;;;;1.40;1.40;;;20.20;70.00;;;;;;5085673;28;43948;-74
2022/10/11 12:18:51;;;;;;;1.30;1.30;;;20.20;70.00;;;;;;5083699;28;43637;-73
2022/10/11 12:21:22;;;;;;;1.33;1.33;;;20.20;70.10;;;;;;5084102;28;43922;-73
2022/10/11 12:23:51;;;;;;;1.30;1.30;;;20.20;70.20;;;;;;5088203;28;44940;-73
2022/10/11 12:26:35;;;;;;;1.57;1.47;;;20.20;70.20;;;;;;5089563;27;43431;-74
2022/10/11 12:29:45;;;;;;;1.27;1.27;;;20.20;70.20;;;;;;5090053;28;43516;-74
2022/10/11 12:32:46;;;;;;;1.47;1.47;;;20.20;70.30;;;;;;5087487;28;43594;-74
2022/10/11 12:35:38;;;;;;;1.43;1.43;;;20.10;70.40;;;;;;5082056;28;45207;-73
2022/10/11 12:38:14;;;;;;;1.13;1.13;;;20.10;70.50;;;;;;5087635;28;43386;-74
2022/10/11 12:40:42;;;;;;;1.40;1.40;;;20.10;70.50;;;;;;5089945;28;43434;-74
2022/10/11 12:43:23;;;;;;;1.47;1.43;;;20.10;70.40;;;;;;5088896;28;44137;-75
2022/10/11 12:45:52;;;;;;;1.20;1.20;;;20.10;70.50;;;;;;5088465;28;43796;-73
2022/10/11 12:48:44;;;;;;;1.47;1.47;;;20.00;70.50;;;;;;5083049;28;43429;-74
2022/10/11 12:51:35;;;;;;;1.30;1.30;;;20.00;70.80;;;;;;5090126;27;43563;-74
2022/10/11 12:54:36;;;;;;;1.50;1.50;;;20.10;70.50;;;;;;5089135;28;43847;-73
2022/10/11 12:57:31;;;;;;;1.33;1.33;;;20.20;70.00;;;;;;5086882;28;43469;-74
2022/10/11 13:00:07;;;;;;;1.43;1.43;;;20.40;69.50;;;;;;5089161;27;43442;-75
2022/10/11 13:02:39;;;;;;;1.40;1.40;;;20.40;69.20;;;;;;5089747;27;43482;-74
2022/10/11 13:05:08;;;;;;;1.10;1.10;;;20.40;69.30;;;;;;5087581;28;45648;-74
2022/10/11 13:07:36;;;;;;;1.20;1.20;;;20.40;69.50;;;;;;5087804;27;43487;-74